Terminal Aerodrome Forecast
Issued by NWS Upton, NY

Home | Current Version | Previous Version | Text Only | Print | Product List | Glossary On
Versions: 1 2 3 4 5 6 7 8 9 10 11 12 13 14 15 16 17 18 19 20 21 22 23 24 25 26 27 28 29 30 31 32 33 34 35 36 37 38 39 40 41 42 43 44 45 46
618
FTUS41 KOKX 200234 AAA
TAFLGA
TAF AMD
KLGA 200234Z 2003/2024 32008KT P6SM BKN035
     FM200500 35004KT P6SM SCT025 SCT250
     FM201500 09004KT P6SM SCT020 BKN200
     FM201800 14006KT P6SM BKN020 BKN200
     FM202300 13006KT 3SM -RA BR OVC015=

USA.gov is the U.S. government's official web portal to all federal, state and local government web resources and services.